Time;durP1;ratioP1;P1;durP2;ratioP2;P2;SDS_P1;SDS_P2;PMS_P1;PMS_P2;Temp;Humidity;BMP_temperature;BMP_pressure;BME280_temperature;BME280_humidity;BME280_pressure;Samples;Min_cycle;Max_cycle;Signal;HPM_P1;HPM_P2
2021/05/13 00:02:19;;;;;;;58.10;2.87;;;9.70;97.80;;;;;;5091736;28;20521;-65
2021/05/13 00:04:45;;;;;;;57.20;2.20;;;9.70;97.80;;;;;;5091953;28;20449;-65
2021/05/13 00:07:12;;;;;;;57.23;2.40;;;9.70;97.80;;;;;;5091749;28;20542;-65
2021/05/13 00:09:41;;;;;;;57.40;2.50;;;9.70;97.70;;;;;;5089957;28;20545;-66
2021/05/13 00:12:14;;;;;;;57.73;3.13;;;9.70;97.70;;;;;;5089310;28;20479;-65
2021/05/13 00:14:40;;;;;;;57.90;2.87;;;9.70;97.60;;;;;;5091981;28;20594;-65
2021/05/13 00:17:08;;;;;;;57.13;2.30;;;9.60;97.60;;;;;;5091786;28;20484;-65
2021/05/13 00:19:34;;;;;;;57.47;2.90;;;9.60;97.80;;;;;;5091484;28;20922;-65
2021/05/13 00:22:00;;;;;;;57.80;3.60;;;9.60;97.70;;;;;;5091596;28;20497;-65
2021/05/13 00:24:27;;;;;;;57.87;3.10;;;9.60;97.70;;;;;;5091753;28;20536;-66
2021/05/13 00:26:58;;;;;;;57.80;3.10;;;9.60;97.60;;;;;;5091514;28;20536;-66
2021/05/13 00:29:27;;;;;;;59.80;2.77;;;9.60;97.60;;;;;;5091805;28;20448;-65
2021/05/13 00:31:53;;;;;;;57.80;2.90;;;9.60;98.00;;;;;;5091254;28;20572;-65
2021/05/13 00:34:20;;;;;;;57.43;2.53;;;9.60;97.60;;;;;;5091765;28;20446;-65
2021/05/13 00:36:47;;;;;;;57.70;3.47;;;9.60;97.70;;;;;;5091483;28;20541;-65
2021/05/13 00:39:13;;;;;;;57.80;3.17;;;9.60;97.80;;;;;;5091901;28;21076;-65
2021/05/13 00:41:39;;;;;;;58.00;3.17;;;9.60;97.90;;;;;;5082313;28;20477;-65
2021/05/13 00:44:07;;;;;;;57.03;2.33;;;9.50;97.90;;;;;;5079708;28;20487;-65
2021/05/13 00:46:34;;;;;;;57.40;2.87;;;9.60;98.00;;;;;;5091328;28;20842;-65
2021/05/13 00:49:03;;;;;;;57.50;2.77;;;9.60;98.10;;;;;;5091233;28;20557;-65
2021/05/13 00:51:31;;;;;;;57.70;2.53;;;9.60;98.20;;;;;;5091622;28;20505;-65
2021/05/13 00:53:59;;;;;;;57.90;2.83;;;9.60;98.50;;;;;;5090852;28;20998;-65
2021/05/13 00:56:27;;;;;;;58.97;3.67;;;9.60;98.70;;;;;;5091237;28;20998;-65
2021/05/13 00:58:57;;;;;;;57.30;2.57;;;9.60;98.90;;;;;;5091288;28;20504;-66
2021/05/13 01:01:24;;;;;;;57.67;2.80;;;9.60;99.00;;;;;;5091189;28;20468;-65
2021/05/13 01:03:51;;;;;;;57.13;2.47;;;9.60;99.10;;;;;;5090908;28;20510;-65
2021/05/13 01:06:17;;;;;;;57.23;2.60;;;9.60;99.20;;;;;;5091401;28;20530;-65
2021/05/13 01:08:44;;;;;;;57.80;3.47;;;9.60;99.20;;;;;;5091468;28;20441;-65
2021/05/13 01:11:13;;;;;;;57.17;2.50;;;9.60;99.60;;;;;;5091088;28;21012;-65
2021/05/13 01:13:55;;;;;;;57.47;2.77;;;9.60;99.20;;;;;;5073491;28;20458;-65
2021/05/13 01:16:28;;;;;;;57.30;2.90;;;9.60;99.20;;;;;;5090022;28;20489;-65
2021/05/13 01:18:56;;;;;;;57.97;2.80;;;9.60;99.30;;;;;;5091414;28;20481;-65
2021/05/13 01:21:24;;;;;;;57.80;3.60;;;9.60;99.30;;;;;;5091015;28;20981;-65
2021/05/13 01:23:50;;;;;;;57.90;3.00;;;9.60;99.30;;;;;;5093131;28;20464;-66
2021/05/13 01:26:19;;;;;;;57.60;3.13;;;9.60;99.40;;;;;;5094655;28;20449;-65
2021/05/13 01:28:45;;;;;;;57.30;2.50;;;9.60;99.40;;;;;;5094911;28;21010;-66
2021/05/13 01:31:12;;;;;;;57.17;2.53;;;9.50;99.50;;;;;;5094843;28;20599;-65
2021/05/13 01:33:41;;;;;;;57.40;2.80;;;9.50;99.30;;;;;;5094420;28;20445;-65
2021/05/13 01:36:08;;;;;;;57.57;3.60;;;9.50;99.40;;;;;;5094780;28;20536;-65
2021/05/13 01:38:35;;;;;;;57.30;2.40;;;9.50;99.40;;;;;;5094669;28;20614;-65
2021/05/13 01:41:04;;;;;;;57.30;2.50;;;9.50;99.40;;;;;;5094421;28;20563;-65
2021/05/13 01:43:32;;;;;;;57.27;2.73;;;9.50;99.60;;;;;;5090878;28;20469;-65
2021/05/13 01:45:59;;;;;;;57.50;2.57;;;9.50;99.40;;;;;;5094753;28;20484;-66
2021/05/13 01:48:26;;;;;;;57.17;2.50;;;9.50;99.50;;;;;;5094641;28;20495;-65
2021/05/13 01:50:53;;;;;;;58.00;3.83;;;9.40;99.50;;;;;;5094852;28;20819;-66
2021/05/13 01:53:20;;;;;;;57.47;2.80;;;9.40;99.50;;;;;;5094567;28;20488;-65
2021/05/13 01:55:47;;;;;;;57.50;3.03;;;9.40;99.90;;;;;;5094096;28;20487;-65
2021/05/13 01:58:14;;;;;;;57.30;2.83;;;9.40;99.40;;;;;;5094389;28;20569;-66
2021/05/13 02:00:43;;;;;;;57.33;2.60;;;9.40;99.40;;;;;;5094388;28;20527;-65
2021/05/13 02:03:11;;;;;;;57.40;2.73;;;9.40;99.70;;;;;;5094159;28;20540;-65
2021/05/13 02:05:37;;;;;;;57.40;3.03;;;9.40;99.60;;;;;;5094184;28;20688;-65
2021/05/13 02:08:04;;;;;;;57.37;2.70;;;9.40;99.90;;;;;;5094110;28;20992;-67
2021/05/13 02:10:30;;;;;;;58.30;2.80;;;9.40;99.90;;;;;;5093883;28;20522;-65
2021/05/13 02:12:59;;;;;;;57.60;3.13;;;9.40;99.80;;;;;;5093971;28;20547;-65
2021/05/13 02:15:26;;;;;;;57.27;2.80;;;9.30;99.60;;;;;;5079429;28;20499;-66
2021/05/13 02:17:52;;;;;;;58.47;2.90;;;9.30;99.90;;;;;;5073710;28;20483;-65
2021/05/13 02:20:21;;;;;;;58.67;3.30;;;9.30;99.90;;;;;;5073642;28;20485;-65
2021/05/13 02:22:48;;;;;;;57.27;2.57;;;9.30;99.90;;;;;;5073285;28;20613;-66
2021/05/13 02:25:15;;;;;;;57.33;2.60;;;9.30;99.90;;;;;;5073267;28;20461;-66
2021/05/13 02:27:42;;;;;;;57.47;2.80;;;9.30;99.90;;;;;;5073833;28;20557;-65
2021/05/13 02:30:11;;;;;;;58.00;3.57;;;9.30;99.90;;;;;;5073659;28;20455;-65
2021/05/13 02:32:38;;;;;;;57.80;3.00;;;9.30;99.90;;;;;;5072737;28;20550;-65
2021/05/13 02:35:05;;;;;;;57.80;3.20;;;9.30;99.90;;;;;;5072108;28;20546;-66
2021/05/13 02:37:32;;;;;;;57.40;2.50;;;9.20;99.90;;;;;;5073459;28;20528;-65
2021/05/13 02:39:58;;;;;;;56.97;2.40;;;9.30;99.90;;;;;;5073525;28;20499;-64
2021/05/13 02:42:24;;;;;;;57.17;2.37;;;9.30;99.90;;;;;;5072949;28;21046;-65
2021/05/13 02:44:51;;;;;;;58.83;3.13;;;9.30;99.90;;;;;;5072134;28;20450;-65
2021/05/13 02:47:18;;;;;;;57.90;3.47;;;9.30;99.90;;;;;;5070631;28;20540;-65
2021/05/13 02:49:44;;;;;;;57.33;2.73;;;9.20;99.90;;;;;;5072993;28;20533;-65
2021/05/13 02:52:10;;;;;;;57.07;2.50;;;9.20;99.90;;;;;;5072894;28;20595;-65
2021/05/13 02:54:37;;;;;;;57.90;2.70;;;9.20;99.90;;;;;;5073032;28;20455;-65
2021/05/13 02:57:03;;;;;;;57.70;2.57;;;9.20;99.90;;;;;;5073102;28;20599;-66
2021/05/13 02:59:39;;;;;;;57.97;2.90;;;9.20;99.90;;;;;;5072934;28;20486;-65
2021/05/13 03:02:06;;;;;;;57.47;3.10;;;9.20;99.90;;;;;;5072469;28;20844;-65
2021/05/13 03:04:33;;;;;;;57.40;3.10;;;9.20;99.90;;;;;;5073117;28;20540;-65
2021/05/13 03:07:00;;;;;;;57.33;2.60;;;9.20;99.90;;;;;;5073128;28;20909;-65
2021/05/13 03:09:26;;;;;;;57.30;2.60;;;9.20;99.90;;;;;;5072559;28;20479;-65
2021/05/13 03:11:53;;;;;;;56.97;2.27;;;9.20;99.90;;;;;;5072219;28;20747;-65
2021/05/13 03:14:19;;;;;;;59.00;5.03;;;9.10;99.90;;;;;;5072662;28;20550;-66
2021/05/13 03:16:45;;;;;;;57.60;2.93;;;9.10;99.90;;;;;;5070589;28;20520;-66
2021/05/13 03:19:16;;;;;;;57.17;2.43;;;9.10;99.90;;;;;;5077471;28;21025;-65
2021/05/13 03:21:46;;;;;;;57.37;2.60;;;9.10;99.90;;;;;;5092982;28;20652;-65
2021/05/13 03:24:18;;;;;;;57.20;2.43;;;9.10;99.90;;;;;;5092165;28;20949;-65
2021/05/13 03:26:56;;;;;;;57.97;2.90;;;9.10;99.90;;;;;;5092615;28;20460;-65
2021/05/13 03:29:22;;;;;;;57.47;2.53;;;9.10;99.90;;;;;;5092433;28;20536;-65
2021/05/13 03:31:49;;;;;;;57.50;2.70;;;9.20;99.90;;;;;;5093000;28;20560;-65
2021/05/13 03:34:15;;;;;;;57.23;2.67;;;9.20;99.90;;;;;;5092406;28;20450;-65
2021/05/13 03:36:43;;;;;;;57.63;2.90;;;9.20;99.90;;;;;;5092352;28;20548;-65
2021/05/13 03:39:10;;;;;;;57.63;3.03;;;9.20;99.90;;;;;;5092070;28;20523;-65
2021/05/13 03:41:37;;;;;;;57.50;3.00;;;9.20;99.90;;;;;;5092274;28;20999;-65
2021/05/13 03:44:04;;;;;;;57.27;2.60;;;9.20;99.90;;;;;;5091927;28;20449;-65
2021/05/13 03:46:31;;;;;;;57.50;2.53;;;9.20;99.90;;;;;;5092368;28;20485;-65
2021/05/13 03:48:57;;;;;;;57.27;2.60;;;9.20;99.90;;;;;;5089060;28;20473;-65
2021/05/13 03:51:24;;;;;;;57.50;2.73;;;9.20;99.90;;;;;;5092110;28;20523;-65
2021/05/13 03:53:51;;;;;;;57.87;3.03;;;9.20;99.90;;;;;;5091591;28;20535;-65
2021/05/13 03:56:17;;;;;;;57.37;2.67;;;9.20;99.90;;;;;;5092034;28;20481;-65
2021/05/13 03:58:47;;;;;;;57.80;2.87;;;9.20;99.90;;;;;;5091979;28;20489;-65
2021/05/13 04:01:17;;;;;;;57.50;3.40;;;9.20;99.90;;;;;;5092146;28;20481;-65
2021/05/13 04:03:43;;;;;;;57.70;3.27;;;9.10;99.90;;;;;;5091370;28;21013;-65
2021/05/13 04:06:12;;;;;;;57.30;2.50;;;9.10;99.90;;;;;;5092237;28;20483;-65
2021/05/13 04:08:39;;;;;;;57.27;2.47;;;9.10;99.90;;;;;;5092088;28;20490;-65
2021/05/13 04:11:06;;;;;;;56.93;2.53;;;9.10;99.90;;;;;;5091669;28;20573;-65
2021/05/13 04:13:33;;;;;;;57.40;2.67;;;9.10;99.90;;;;;;5091507;28;20445;-65
2021/05/13 04:16:06;;;;;;;57.30;2.70;;;9.10;99.90;;;;;;5092054;28;20477;-65
2021/05/13 04:18:32;;;;;;;57.80;3.23;;;9.10;99.90;;;;;;5090928;28;20857;-65
2021/05/13 04:20:58;;;;;;;57.40;2.80;;;9.10;99.90;;;;;;5071950;28;20510;-65
2021/05/13 04:23:25;;;;;;;57.20;2.37;;;9.20;99.90;;;;;;5091160;28;20494;-66
2021/05/13 04:25:51;;;;;;;57.80;3.10;;;9.20;99.90;;;;;;5091478;28;20590;-65
2021/05/13 04:28:18;;;;;;;58.77;3.20;;;9.20;99.90;;;;;;5091218;28;20535;-66
2021/05/13 04:30:45;;;;;;;57.30;2.50;;;9.30;99.90;;;;;;5091572;28;20767;-65
2021/05/13 04:33:12;;;;;;;57.07;2.20;;;9.30;99.90;;;;;;5091386;28;20541;-65
2021/05/13 04:35:39;;;;;;;57.30;2.40;;;9.30;99.90;;;;;;5091372;28;20449;-65
2021/05/13 04:38:05;;;;;;;57.23;2.60;;;9.40;99.90;;;;;;5091183;28;20611;-65
2021/05/13 04:40:32;;;;;;;57.10;2.37;;;9.30;99.90;;;;;;5091602;28;20465;-66
2021/05/13 04:42:58;;;;;;;59.27;3.20;;;9.30;99.90;;;;;;5091643;28;20455;-66
2021/05/13 04:45:25;;;;;;;58.17;3.00;;;9.20;99.90;;;;;;5091443;28;20455;-66
2021/05/13 04:50:33;;;;;;;57.47;2.70;;;9.20;99.90;;;;;;5084211;28;20606;-66
2021/05/13 04:53:03;;;;;;;57.30;2.20;;;9.20;99.90;;;;;;5091275;28;20456;-65
2021/05/13 04:55:30;;;;;;;57.47;2.57;;;9.20;99.90;;;;;;5091360;28;20572;-65
2021/05/13 04:57:56;;;;;;;57.97;3.50;;;9.20;99.90;;;;;;5092539;28;20475;-65
2021/05/13 05:00:23;;;;;;;57.37;2.60;;;9.20;99.90;;;;;;5095441;28;20592;-65
2021/05/13 05:02:50;;;;;;;57.50;3.10;;;9.20;99.90;;;;;;5095142;28;20544;-66
2021/05/13 05:05:16;;;;;;;57.40;2.37;;;9.20;99.90;;;;;;5095029;28;20882;-66
2021/05/13 05:07:42;;;;;;;57.40;2.80;;;9.20;99.90;;;;;;5095761;28;20540;-66
2021/05/13 05:10:13;;;;;;;57.73;2.87;;;9.10;99.90;;;;;;5095513;28;20471;-65
2021/05/13 05:12:39;;;;;;;57.30;2.67;;;9.20;99.90;;;;;;5094950;28;20465;-65
2021/05/13 05:15:06;;;;;;;57.40;2.80;;;9.20;99.90;;;;;;5094982;28;20491;-65
2021/05/13 05:17:33;;;;;;;60.77;3.27;;;9.20;99.90;;;;;;5095029;28;20446;-65
2021/05/13 05:20:00;;;;;;;57.27;3.20;;;9.20;99.90;;;;;;5095236;28;20494;-65
2021/05/13 05:22:26;;;;;;;57.27;2.70;;;9.20;99.90;;;;;;5092385;28;20483;-66
2021/05/13 05:24:53;;;;;;;58.93;2.80;;;9.20;99.90;;;;;;5079248;28;20449;-66
2021/05/13 05:27:19;;;;;;;57.20;2.87;;;9.30;99.90;;;;;;5074946;28;20507;-65
2021/05/13 05:29:45;;;;;;;57.23;2.50;;;9.30;99.90;;;;;;5074760;28;20439;-65
2021/05/13 05:32:12;;;;;;;58.07;3.10;;;9.40;99.90;;;;;;5074012;28;20569;-66
2021/05/13 05:34:38;;;;;;;57.97;3.47;;;9.50;99.90;;;;;;5074524;28;20470;-66
2021/05/13 05:37:06;;;;;;;56.97;2.40;;;9.60;99.90;;;;;;5074708;28;20824;-66
2021/05/13 05:39:32;;;;;;;57.10;2.50;;;9.60;99.90;;;;;;5074449;28;20568;-65
2021/05/13 05:41:58;;;;;;;56.97;2.40;;;9.60;99.30;;;;;;5074119;28;20546;-65
2021/05/13 05:44:25;;;;;;;58.20;3.00;;;9.60;98.90;;;;;;5074191;28;21016;-65
2021/05/13 05:46:51;;;;;;;59.77;2.70;;;9.60;98.10;;;;;;5074205;28;20545;-65
2021/05/13 05:49:18;;;;;;;58.30;3.47;;;9.60;97.90;;;;;;5074443;28;20549;-65
2021/05/13 05:51:44;;;;;;;56.97;2.67;;;9.60;97.90;;;;;;5074163;28;20556;-65
2021/05/13 05:54:12;;;;;;;57.03;2.50;;;9.60;97.30;;;;;;5090165;28;20537;-65
2021/05/13 05:56:38;;;;;;;57.70;2.80;;;9.70;97.10;;;;;;5094436;28;20450;-66
2021/05/13 05:59:06;;;;;;;57.07;2.70;;;9.70;96.90;;;;;;5094211;28;21035;-65
2021/05/13 06:01:34;;;;;;;57.17;2.80;;;9.70;96.80;;;;;;5094549;28;20473;-65
2021/05/13 06:04:01;;;;;;;57.20;2.60;;;9.80;96.10;;;;;;5094088;28;20454;-65
2021/05/13 06:06:27;;;;;;;57.00;2.60;;;9.80;96.50;;;;;;5094323;28;20536;-65
2021/05/13 06:08:53;;;;;;;58.23;3.30;;;9.90;96.30;;;;;;5093395;28;20442;-65
2021/05/13 06:11:21;;;;;;;57.97;3.10;;;10.00;95.90;;;;;;5093602;28;20488;-66
2021/05/13 06:13:47;;;;;;;57.97;2.60;;;10.10;95.70;;;;;;5093735;28;20450;-65
2021/05/13 06:16:13;;;;;;;57.63;3.10;;;10.10;95.20;;;;;;5094458;28;20450;-65
2021/05/13 06:18:50;;;;;;;57.83;2.97;;;10.20;94.60;;;;;;5094001;28;20485;-65
2021/05/13 06:21:16;;;;;;;57.90;3.13;;;10.30;94.10;;;;;;5093980;28;21000;-66
2021/05/13 06:23:47;;;;;;;58.13;2.90;;;10.40;93.70;;;;;;5091516;28;20674;-65
2021/05/13 06:26:25;;;;;;;57.47;2.57;;;10.40;93.40;;;;;;5086768;28;20443;-65
2021/05/13 06:28:51;;;;;;;58.60;2.83;;;10.50;92.90;;;;;;5073531;28;20525;-66
2021/05/13 06:31:18;;;;;;;57.90;3.03;;;10.50;92.30;;;;;;5072595;28;20550;-66
2021/05/13 06:33:44;;;;;;;57.33;2.73;;;10.60;91.80;;;;;;5073058;28;20439;-66
2021/05/13 06:36:11;;;;;;;57.60;3.10;;;10.70;90.30;;;;;;5073439;28;20802;-65
2021/05/13 06:38:37;;;;;;;57.57;3.10;;;10.80;89.20;;;;;;5073388;28;20485;-65
2021/05/13 06:41:05;;;;;;;58.43;2.80;;;10.90;86.10;;;;;;5073009;28;20912;-66
2021/05/13 06:43:33;;;;;;;57.80;2.93;;;10.90;84.00;;;;;;5073023;28;20485;-66
2021/05/13 06:45:59;;;;;;;57.03;2.47;;;11.00;82.90;;;;;;5073345;28;20435;-66
2021/05/13 06:48:26;;;;;;;60.63;3.70;;;11.10;80.50;;;;;;5073291;28;20439;-65
2021/05/13 06:50:52;;;;;;;57.17;2.80;;;11.10;78.70;;;;;;5073225;28;20537;-65
2021/05/13 06:53:19;;;;;;;58.20;3.10;;;11.20;76.90;;;;;;5072665;28;20943;-66
2021/05/13 06:55:51;;;;;;;57.47;2.60;;;11.30;75.80;;;;;;5081930;28;20538;-65
2021/05/13 06:58:17;;;;;;;57.57;2.77;;;11.30;72.00;;;;;;5093236;28;20482;-66
2021/05/13 07:00:45;;;;;;;57.17;2.47;;;11.40;67.70;;;;;;5093405;28;20553;-66
2021/05/13 07:03:11;;;;;;;57.27;2.23;;;11.40;63.00;;;;;;5092775;28;20588;-65
2021/05/13 07:05:37;;;;;;;57.73;3.40;;;11.50;58.40;;;;;;5092831;28;21001;-66
2021/05/13 07:08:05;;;;;;;57.27;3.13;;;11.50;48.50;;;;;;5092969;28;20446;-65
2021/05/13 07:10:31;;;;;;;57.30;2.57;;;11.60;40.10;;;;;;5093011;28;20463;-66
2021/05/13 07:12:57;;;;;;;58.10;3.00;;;11.60;28.70;;;;;;5092789;28;20450;-66
2021/05/13 07:15:24;;;;;;;57.10;2.40;;;11.70;14.40;;;;;;5092700;28;20867;-66
2021/05/13 07:17:51;;;;;;;57.17;2.40;;;11.80;7.80;;;;;;5093121;28;20443;-66
2021/05/13 07:20:19;;;;;;;57.13;2.50;;;11.90;4.10;;;;;;5092509;28;20442;-65
2021/05/13 07:22:45;;;;;;;57.33;2.57;;;11.90;1.00;;;;;;5092422;28;20454;-66
2021/05/13 07:25:12;;;;;;;57.50;2.60;;;11.90;1.00;;;;;;5091671;28;20478;-65
2021/05/13 07:27:38;;;;;;;57.90;2.80;;;12.00;1.00;;;;;;5090088;28;20599;-65
2021/05/13 07:30:06;;;;;;;57.80;2.63;;;12.10;1.00;;;;;;5092781;28;20535;-65
2021/05/13 07:32:32;;;;;;;57.17;2.60;;;12.20;1.00;;;;;;5092146;28;20462;-66
2021/05/13 07:34:59;;;;;;;57.40;2.50;;;12.20;1.00;;;;;;5092316;28;20446;-66
2021/05/13 07:37:26;;;;;;;58.00;2.40;;;12.30;1.00;;;;;;5092416;28;20545;-66
2021/05/13 07:39:52;;;;;;;57.23;2.40;;;12.40;1.00;;;;;;5092261;28;20520;-66
2021/05/13 07:42:18;;;;;;;57.03;2.27;;;12.60;1.00;;;;;;5092092;28;20461;-66
2021/05/13 07:44:45;;;;;;;57.40;2.63;;;12.70;1.00;;;;;;5092706;28;20453;-66
2021/05/13 07:47:11;;;;;;;57.03;2.30;;;12.70;1.00;;;;;;5092327;28;20595;-66
2021/05/13 07:49:38;;;;;;;57.20;2.30;;;12.80;1.00;;;;;;5092014;28;20442;-66
2021/05/13 07:52:05;;;;;;;56.97;2.27;;;12.90;1.00;;;;;;5091981;28;20470;-66
2021/05/13 07:54:32;;;;;;;57.30;2.53;;;13.00;1.00;;;;;;5092563;28;20446;-66
2021/05/13 07:56:58;;;;;;;57.17;2.47;;;13.20;1.00;;;;;;5088985;28;20543;-66
2021/05/13 07:59:25;;;;;;;57.50;2.60;;;13.30;1.00;;;;;;5091918;28;20514;-66
2021/05/13 08:01:51;;;;;;;57.60;2.70;;;13.50;1.00;;;;;;5091710;28;21022;-66
2021/05/13 08:04:17;;;;;;;57.20;2.13;;;13.60;1.00;;;;;;5091785;28;20443;-66
2021/05/13 08:06:45;;;;;;;57.20;2.30;;;13.70;1.00;;;;;;5092156;28;20541;-66
2021/05/13 08:09:12;;;;;;;57.20;2.60;;;13.80;1.00;;;;;;5092285;28;20815;-66
2021/05/13 08:11:39;;;;;;;57.17;2.30;;;13.90;1.00;;;;;;5091836;28;20529;-67
2021/05/13 08:14:06;;;;;;;57.20;2.20;;;14.00;1.00;;;;;;5091384;28;20600;-66
2021/05/13 08:16:32;;;;;;;56.67;2.13;;;14.20;1.00;;;;;;5091692;28;20450;-66
2021/05/13 08:18:59;;;;;;;57.27;2.60;;;14.30;1.00;;;;;;5091622;28;20577;-66
2021/05/13 08:21:25;;;;;;;57.10;2.30;;;14.40;1.00;;;;;;5091995;28;20850;-66
2021/05/13 08:23:51;;;;;;;57.17;2.40;;;14.50;1.00;;;;;;5091200;28;20447;-66
2021/05/13 08:26:19;;;;;;;58.00;3.30;;;14.60;1.00;;;;;;5091735;28;20512;-66
2021/05/13 08:28:45;;;;;;;57.40;2.47;;;14.70;1.00;;;;;;5075931;28;21013;-66
2021/05/13 08:31:11;;;;;;;56.83;2.13;;;14.80;1.00;;;;;;5087461;28;20850;-67
2021/05/13 08:33:38;;;;;;;57.60;2.80;;;14.80;1.00;;;;;;5090274;28;20450;-66
2021/05/13 08:36:05;;;;;;;56.97;2.33;;;15.00;1.00;;;;;;5091429;28;20442;-67
2021/05/13 08:38:31;;;;;;;57.37;2.50;;;15.20;1.00;;;;;;5091357;28;20570;-66
2021/05/13 08:40:59;;;;;;;57.30;2.47;;;15.40;1.00;;;;;;5091474;28;20984;-66
2021/05/13 08:43:27;;;;;;;57.17;2.53;;;15.50;1.00;;;;;;5091091;28;20445;-66
2021/05/13 08:45:56;;;;;;;57.23;2.43;;;15.70;1.00;;;;;;5091061;28;20971;-66
2021/05/13 08:48:25;;;;;;;57.13;2.40;;;15.80;1.00;;;;;;5091420;28;20478;-64
2021/05/13 08:50:52;;;;;;;57.30;2.30;;;16.10;1.00;;;;;;5091519;28;20467;-64
2021/05/13 08:53:18;;;;;;;57.30;2.50;;;16.30;1.00;;;;;;5091123;28;20472;-64
2021/05/13 08:55:44;;;;;;;57.00;2.17;;;16.50;1.00;;;;;;5091469;28;20580;-64
2021/05/13 08:58:11;;;;;;;56.60;2.30;;;16.70;1.00;;;;;;5089438;28;20477;-65
2021/05/13 09:00:38;;;;;;;57.37;2.23;;;16.80;1.00;;;;;;5086689;28;20553;-65
2021/05/13 09:03:05;;;;;;;57.40;2.30;;;16.90;1.00;;;;;;5070907;28;20540;-65
2021/05/13 09:05:31;;;;;;;57.50;2.60;;;17.10;1.00;;;;;;5070933;28;20524;-65
2021/05/13 09:08:04;;;;;;;56.77;2.10;;;17.30;1.00;;;;;;5071238;28;20867;-65
2021/05/13 09:10:31;;;;;;;57.10;2.20;;;17.40;1.00;;;;;;5070858;28;20561;-65
2021/05/13 09:12:57;;;;;;;56.63;2.43;;;17.70;1.00;;;;;;5070658;28;20540;-66
2021/05/13 09:15:28;;;;;;;57.37;2.50;;;17.90;1.00;;;;;;5070701;28;20532;-66
2021/05/13 09:18:03;;;;;;;57.50;2.40;;;18.10;1.00;;;;;;5071237;28;20537;-65
2021/05/13 09:20:31;;;;;;;57.37;2.23;;;18.20;1.00;;;;;;5070948;28;20442;-66
2021/05/13 09:23:12;;;;;;;57.03;2.10;;;18.40;1.00;;;;;;5070717;28;20450;-66
2021/05/13 09:25:39;;;;;;;57.20;2.10;;;18.60;1.00;;;;;;5070592;28;20996;-65
2021/05/13 09:28:07;;;;;;;57.40;2.20;;;18.80;1.00;;;;;;5071147;28;20505;-65
2021/05/13 09:30:35;;;;;;;56.63;2.10;;;18.90;1.00;;;;;;5067280;28;20481;-66
2021/05/13 09:33:04;;;;;;;58.97;2.53;;;19.00;1.00;;;;;;5070281;28;20447;-66
2021/05/13 09:35:32;;;;;;;57.30;2.40;;;19.10;1.00;;;;;;5070863;28;20489;-66
2021/05/13 09:38:01;;;;;;;57.20;2.23;;;19.50;1.00;;;;;;5070680;28;20537;-66
2021/05/13 09:40:34;;;;;;;57.10;2.20;;;19.90;1.00;;;;;;5070708;28;20968;-66
2021/05/13 09:43:14;;;;;;;56.87;2.30;;;20.40;1.00;;;;;;5070847;28;20452;-66
2021/05/13 09:45:45;;;;;;;57.40;3.03;;;20.80;1.00;;;;;;5074222;28;20498;-66
2021/05/13 09:48:29;;;;;;;57.40;2.27;;;21.20;1.00;;;;;;5074407;28;20500;-66
2021/05/13 09:51:15;;;;;;;56.77;2.40;;;21.70;1.00;;;;;;5074172;28;20492;-66
2021/05/13 09:53:41;;;;;;;56.83;2.20;;;21.80;1.00;;;;;;5074159;28;20507;-66
2021/05/13 09:56:24;;;;;;;57.37;2.40;;;21.70;1.00;;;;;;5074172;28;20447;-67
2021/05/13 09:58:51;;;;;;;56.90;2.00;;;21.50;1.00;;;;;;5073859;28;20481;-66
2021/05/13 10:01:18;;;;;;;57.17;2.53;;;21.40;1.00;;;;;;5083166;28;20499;-66
2021/05/13 10:03:46;;;;;;;58.03;2.20;;;21.30;1.00;;;;;;5093829;28;20449;-66
2021/05/13 10:06:13;;;;;;;56.80;2.30;;;21.40;1.00;;;;;;5094454;28;20450;-67
2021/05/13 10:08:41;;;;;;;56.80;2.13;;;21.40;1.00;;;;;;5094223;28;20475;-65
2021/05/13 10:11:08;;;;;;;56.97;2.17;;;21.50;1.00;;;;;;5094092;28;20487;-66
2021/05/13 10:13:35;;;;;;;56.67;2.13;;;21.50;1.00;;;;;;5093364;28;20541;-66
2021/05/13 10:16:03;;;;;;;57.00;2.40;;;21.70;1.00;;;;;;5094304;28;20450;-65
2021/05/13 10:18:37;;;;;;;57.63;2.50;;;22.30;1.00;;;;;;5094057;28;20523;-66
2021/05/13 10:21:08;;;;;;;57.13;2.20;;;23.40;1.00;;;;;;5094108;28;20470;-63
2021/05/13 10:23:37;;;;;;;57.37;2.20;;;24.70;1.00;;;;;;5093565;28;20448;-65
2021/05/13 10:26:03;;;;;;;57.50;2.47;;;26.00;1.00;;;;;;5093757;28;20456;-65
2021/05/13 10:28:31;;;;;;;56.97;2.13;;;26.50;1.00;;;;;;5093687;28;20453;-65
2021/05/13 10:31:03;;;;;;;56.97;2.27;;;26.50;1.00;;;;;;5090747;28;20551;-66
2021/05/13 10:33:48;;;;;;;57.30;2.10;;;25.90;1.00;;;;;;5088612;28;20465;-66
2021/05/13 10:36:16;;;;;;;57.00;2.20;;;25.20;1.00;;;;;;5073294;28;20973;-66
2021/05/13 10:38:46;;;;;;;56.67;2.10;;;24.80;1.00;;;;;;5073541;28;20487;-66
2021/05/13 10:41:46;;;;;;;58.47;2.27;;;24.40;1.00;;;;;;5073566;28;20505;-66
2021/05/13 10:44:33;;;;;;;57.23;2.20;;;23.80;1.00;;;;;;5073060;28;20522;-65
2021/05/13 10:47:00;;;;;;;57.20;2.50;;;23.60;1.00;;;;;;5073024;28;20450;-63
2021/05/13 10:49:27;;;;;;;56.47;2.00;;;23.30;1.00;;;;;;5073402;28;20445;-66
2021/05/13 10:51:56;;;;;;;57.03;2.23;;;22.80;1.00;;;;;;5072934;28;20531;-66
2021/05/13 10:54:45;;;;;;;56.87;2.30;;;22.50;1.00;;;;;;5073150;28;20822;-65
2021/05/13 10:57:13;;;;;;;57.30;2.30;;;22.10;1.00;;;;;;5072226;28;20514;-66
2021/05/13 10:59:41;;;;;;;58.20;2.20;;;21.60;1.00;;;;;;5073060;28;20535;-66
2021/05/13 11:02:38;;;;;;;56.70;2.40;;;21.20;1.00;;;;;;5070855;28;20471;-65
2021/05/13 11:05:44;;;;;;;57.07;2.60;;;20.80;1.00;;;;;;5082298;28;20464;-66
2021/05/13 11:08:46;;;;;;;57.37;2.30;;;20.40;1.00;;;;;;5093102;28;20457;-66
2021/05/13 11:11:12;;;;;;;57.40;2.43;;;20.20;1.00;;;;;;5093010;28;20490;-66
2021/05/13 11:13:47;;;;;;;57.67;2.63;;;20.10;1.00;;;;;;5092500;28;20539;-66
2021/05/13 11:16:41;;;;;;;57.50;2.20;;;20.00;1.00;;;;;;5093168;28;20436;-66
2021/05/13 11:19:22;;;;;;;56.83;2.20;;;19.90;1.00;;;;;;5092659;28;20498;-66
2021/05/13 11:22:03;;;;;;;56.77;2.20;;;20.00;1.00;;;;;;5092811;28;20936;-66
2021/05/13 11:24:54;;;;;;;57.20;2.50;;;20.10;1.00;;;;;;5092768;28;20532;-66
2021/05/13 11:27:29;;;;;;;56.97;2.10;;;20.60;1.00;;;;;;5089293;28;20456;-66
2021/05/13 11:29:58;;;;;;;57.20;2.30;;;21.20;1.00;;;;;;5092751;28;20439;-66
2021/05/13 11:32:24;;;;;;;56.87;2.30;;;21.50;1.00;;;;;;5091232;28;20895;-66
2021/05/13 11:34:51;;;;;;;57.03;2.30;;;21.70;1.00;;;;;;5090017;28;20476;-66
2021/05/13 11:37:38;;;;;;;57.30;2.70;;;21.70;1.00;;;;;;5072241;28;21027;-66
2021/05/13 11:40:32;;;;;;;58.23;2.63;;;22.30;1.00;;;;;;5072281;28;20572;-66
2021/05/13 11:43:15;;;;;;;57.33;2.60;;;22.80;1.00;;;;;;5036002;28;20993;-65
2021/05/13 11:45:43;;;;;;;57.17;2.30;;;23.00;1.00;;;;;;5072003;28;20467;-66
2021/05/13 11:48:26;;;;;;;57.03;2.30;;;23.00;1.00;;;;;;5072047;28;20828;-66
2021/05/13 11:50:53;;;;;;;58.97;2.40;;;22.70;1.00;;;;;;5072090;28;20845;-66
2021/05/13 11:53:20;;;;;;;56.83;2.60;;;22.40;1.00;;;;;;5071473;28;20478;-65
2021/05/13 11:55:48;;;;;;;57.10;2.30;;;21.90;1.00;;;;;;5071795;28;20876;-66
2021/05/13 11:58:16;;;;;;;56.77;2.30;;;21.30;1.00;;;;;;5071978;28;20444;-66
2021/05/13 12:00:43;;;;;;;56.93;2.30;;;20.70;1.00;;;;;;5071968;28;20575;-65
2021/05/13 12:03:11;;;;;;;56.93;2.30;;;20.20;1.00;;;;;;5071510;28;20544;-66
2021/05/13 12:05:52;;;;;;;56.97;2.30;;;19.90;1.00;;;;;;5084203;28;20459;-66
2021/05/13 12:08:19;;;;;;;56.93;2.40;;;19.70;1.00;;;;;;5071223;28;20453;-66
2021/05/13 12:10:47;;;;;;;57.37;2.47;;;19.60;1.00;;;;;;5071535;28;20979;-66
2021/05/13 12:13:13;;;;;;;57.07;2.10;;;19.50;1.00;;;;;;5071559;28;20456;-66
2021/05/13 12:15:40;;;;;;;57.07;2.50;;;19.50;1.00;;;;;;5071214;28;20444;-66
2021/05/13 12:18:07;;;;;;;56.87;2.20;;;19.60;1.00;;;;;;5071723;28;20585;-66
2021/05/13 12:20:37;;;;;;;57.50;2.50;;;20.20;1.00;;;;;;5071247;28;20490;-66
2021/05/13 12:23:04;;;;;;;57.03;2.23;;;21.00;1.00;;;;;;5071514;28;20449;-66
2021/05/13 12:25:31;;;;;;;56.80;2.13;;;21.30;1.00;;;;;;5071313;28;20449;-65
2021/05/13 12:27:59;;;;;;;57.07;2.63;;;21.50;1.00;;;;;;5071530;28;20829;-66
2021/05/13 12:30:26;;;;;;;57.83;2.30;;;21.80;1.00;;;;;;5071283;28;20453;-66
2021/05/13 12:32:52;;;;;;;57.37;2.47;;;22.40;1.00;;;;;;5070925;28;20443;-66
2021/05/13 12:35:29;;;;;;;57.13;2.00;;;23.40;1.00;;;;;;5068821;28;21039;-66
2021/05/13 12:38:11;;;;;;;57.20;2.17;;;23.70;1.00;;;;;;5071349;28;20832;-64
2021/05/13 12:40:37;;;;;;;56.80;2.20;;;24.10;1.00;;;;;;5071304;28;20543;-65
2021/05/13 12:43:12;;;;;;;57.07;2.00;;;24.90;1.00;;;;;;5071154;28;20692;-65
2021/05/13 12:45:46;;;;;;;57.00;2.13;;;25.70;1.00;;;;;;5070863;28;20447;-65
2021/05/13 12:48:21;;;;;;;56.97;2.17;;;28.00;1.00;;;;;;5071440;28;20448;-65
2021/05/13 12:50:59;;;;;;;57.17;2.33;;;28.30;1.00;;;;;;5071384;28;20549;-65
2021/05/13 12:53:26;;;;;;;56.57;1.80;;;27.90;1.00;;;;;;5070944;28;20869;-66
2021/05/13 12:55:53;;;;;;;56.97;2.10;;;28.70;1.00;;;;;;5070261;28;20451;-66
2021/05/13 12:58:21;;;;;;;56.80;2.40;;;29.60;1.00;;;;;;5070771;28;20887;-66